sensor_id;sensor_type;location;lat;lon;timestamp;P1;durP1;ratioP1;P2;durP2;ratioP2
17947;SDS011;9099;47.958;11.366;2023-02-01T00:00:20;3.33;;;1.70;;
17947;SDS011;9099;47.958;11.366;2023-02-01T00:02:47;2.13;;;1.92;;
17947;SDS011;9099;47.958;11.366;2023-02-01T00:05:13;1.90;;;1.65;;
17947;SDS011;9099;47.958;11.366;2023-02-01T00:07:40;1.70;;;1.60;;
17947;SDS011;9099;47.958;11.366;2023-02-01T00:10:08;1.52;;;1.40;;
17947;SDS011;9099;47.958;11.366;2023-02-01T00:12:35;2.28;;;1.98;;
17947;SDS011;9099;47.958;11.366;2023-02-01T00:15:02;2.03;;;1.90;;
17947;SDS011;9099;47.958;11.366;2023-02-01T00:17:31;2.03;;;1.80;;
17947;SDS011;9099;47.958;11.366;2023-02-01T00:19:58;1.60;;;1.50;;
17947;SDS011;9099;47.958;11.366;2023-02-01T00:22:24;1.98;;;1.88;;
17947;SDS011;9099;47.958;11.366;2023-02-01T00:24:51;1.70;;;1.60;;
17947;SDS011;9099;47.958;11.366;2023-02-01T00:27:18;1.95;;;1.80;;
17947;SDS011;9099;47.958;11.366;2023-02-01T00:29:46;2.28;;;1.90;;
17947;SDS011;9099;47.958;11.366;2023-02-01T00:32:13;1.88;;;1.75;;
17947;SDS011;9099;47.958;11.366;2023-02-01T00:34:41;2.05;;;1.88;;
17947;SDS011;9099;47.958;11.366;2023-02-01T00:37:08;1.95;;;1.75;;
17947;SDS011;9099;47.958;11.366;2023-02-01T00:39:35;3.72;;;1.95;;
17947;SDS011;9099;47.958;11.366;2023-02-01T00:42:01;2.20;;;2.00;;
17947;SDS011;9099;47.958;11.366;2023-02-01T00:44:28;2.70;;;2.05;;
17947;SDS011;9099;47.958;11.366;2023-02-01T00:46:58;1.95;;;1.85;;
17947;SDS011;9099;47.958;11.366;2023-02-01T00:49:26;1.95;;;1.80;;
17947;SDS011;9099;47.958;11.366;2023-02-01T00:51:54;2.00;;;1.90;;
17947;SDS011;9099;47.958;11.366;2023-02-01T00:54:21;1.88;;;1.77;;
17947;SDS011;9099;47.958;11.366;2023-02-01T00:56:48;2.55;;;2.30;;
17947;SDS011;9099;47.958;11.366;2023-02-01T00:59:15;2.22;;;1.88;;
17947;SDS011;9099;47.958;11.366;2023-02-01T01:01:42;2.67;;;2.03;;
17947;SDS011;9099;47.958;11.366;2023-02-01T01:04:09;2.10;;;2.00;;
17947;SDS011;9099;47.958;11.366;2023-02-01T01:06:35;2.00;;;1.90;;
17947;SDS011;9099;47.958;11.366;2023-02-01T01:09:04;2.83;;;1.88;;
17947;SDS011;9099;47.958;11.366;2023-02-01T01:11:33;2.20;;;2.00;;
17947;SDS011;9099;47.958;11.366;2023-02-01T01:14:01;2.33;;;2.10;;
17947;SDS011;9099;47.958;11.366;2023-02-01T01:16:29;2.10;;;2.00;;
17947;SDS011;9099;47.958;11.366;2023-02-01T01:18:57;2.03;;;1.73;;
17947;SDS011;9099;47.958;11.366;2023-02-01T01:21:24;2.58;;;2.38;;
17947;SDS011;9099;47.958;11.366;2023-02-01T01:23:52;2.72;;;2.35;;
17947;SDS011;9099;47.958;11.366;2023-02-01T01:26:22;2.47;;;2.28;;
17947;SDS011;9099;47.958;11.366;2023-02-01T01:28:50;3.55;;;2.60;;
17947;SDS011;9099;47.958;11.366;2023-02-01T01:31:17;2.50;;;2.30;;
17947;SDS011;9099;47.958;11.366;2023-02-01T01:33:47;3.00;;;2.70;;
17947;SDS011;9099;47.958;11.366;2023-02-01T01:36:14;4.18;;;2.47;;
17947;SDS011;9099;47.958;11.366;2023-02-01T01:38:42;2.35;;;2.15;;
17947;SDS011;9099;47.958;11.366;2023-02-01T01:41:12;4.30;;;2.30;;
17947;SDS011;9099;47.958;11.366;2023-02-01T01:43:48;2.30;;;2.10;;
17947;SDS011;9099;47.958;11.366;2023-02-01T01:46:17;2.77;;;2.57;;
17947;SDS011;9099;47.958;11.366;2023-02-01T01:48:44;2.90;;;2.60;;
17947;SDS011;9099;47.958;11.366;2023-02-01T01:51:13;2.63;;;2.42;;
17947;SDS011;9099;47.958;11.366;2023-02-01T01:53:45;2.90;;;2.67;;
17947;SDS011;9099;47.958;11.366;2023-02-01T01:56:15;2.90;;;2.67;;
17947;SDS011;9099;47.958;11.366;2023-02-01T01:58:43;3.50;;;2.58;;
17947;SDS011;9099;47.958;11.366;2023-02-01T02:01:11;3.00;;;2.80;;
17947;SDS011;9099;47.958;11.366;2023-02-01T02:03:39;3.75;;;2.53;;
17947;SDS011;9099;47.958;11.366;2023-02-01T02:06:10;2.38;;;2.17;;
17947;SDS011;9099;47.958;11.366;2023-02-01T02:08:41;2.80;;;2.60;;
17947;SDS011;9099;47.958;11.366;2023-02-01T02:11:08;3.88;;;2.88;;
17947;SDS011;9099;47.958;11.366;2023-02-01T02:13:38;3.22;;;2.75;;
17947;SDS011;9099;47.958;11.366;2023-02-01T02:16:16;2.90;;;2.70;;
17947;SDS011;9099;47.958;11.366;2023-02-01T02:19:10;3.50;;;2.75;;
17947;SDS011;9099;47.958;11.366;2023-02-01T02:22:04;3.40;;;3.10;;
17947;SDS011;9099;47.958;11.366;2023-02-01T02:24:58;3.30;;;3.00;;
17947;SDS011;9099;47.958;11.366;2023-02-01T02:27:43;3.50;;;3.20;;
17947;SDS011;9099;47.958;11.366;2023-02-01T02:33:28;2.97;;;2.67;;
17947;SDS011;9099;47.958;11.366;2023-02-01T02:36:23;2.92;;;2.70;;
17947;SDS011;9099;47.958;11.366;2023-02-01T02:39:01;3.13;;;2.73;;
17947;SDS011;9099;47.958;11.366;2023-02-01T02:41:34;3.27;;;2.90;;
17947;SDS011;9099;47.958;11.366;2023-02-01T02:44:29;3.10;;;2.83;;
17947;SDS011;9099;47.958;11.366;2023-02-01T02:47:21;4.40;;;3.00;;
17947;SDS011;9099;47.958;11.366;2023-02-01T02:50:01;3.17;;;2.90;;
17947;SDS011;9099;47.958;11.366;2023-02-01T02:52:53;3.00;;;2.77;;
17947;SDS011;9099;47.958;11.366;2023-02-01T02:55:43;2.97;;;2.70;;
17947;SDS011;9099;47.958;11.366;2023-02-01T02:58:11;2.55;;;2.35;;
17947;SDS011;9099;47.958;11.366;2023-02-01T03:00:57;2.88;;;2.58;;
17947;SDS011;9099;47.958;11.366;2023-02-01T03:03:42;2.63;;;2.42;;
17947;SDS011;9099;47.958;11.366;2023-02-01T03:06:35;2.67;;;2.47;;
17947;SDS011;9099;47.958;11.366;2023-02-01T03:09:04;3.27;;;2.63;;
17947;SDS011;9099;47.958;11.366;2023-02-01T03:11:38;3.70;;;2.80;;
17947;SDS011;9099;47.958;11.366;2023-02-01T03:14:24;2.87;;;2.67;;
17947;SDS011;9099;47.958;11.366;2023-02-01T03:16:56;2.70;;;2.50;;
17947;SDS011;9099;47.958;11.366;2023-02-01T03:19:29;3.22;;;2.78;;
17947;SDS011;9099;47.958;11.366;2023-02-01T03:22:02;2.63;;;2.42;;
17947;SDS011;9099;47.958;11.366;2023-02-01T03:24:32;2.70;;;2.50;;
17947;SDS011;9099;47.958;11.366;2023-02-01T03:27:05;3.30;;;3.00;;
17947;SDS011;9099;47.958;11.366;2023-02-01T03:29:36;2.63;;;2.42;;
17947;SDS011;9099;47.958;11.366;2023-02-01T03:32:06;2.63;;;2.30;;
17947;SDS011;9099;47.958;11.366;2023-02-01T03:34:34;3.13;;;2.90;;
17947;SDS011;9099;47.958;11.366;2023-02-01T03:37:03;2.78;;;2.58;;
17947;SDS011;9099;47.958;11.366;2023-02-01T03:39:36;2.70;;;2.40;;
17947;SDS011;9099;47.958;11.366;2023-02-01T03:42:08;2.92;;;2.63;;
17947;SDS011;9099;47.958;11.366;2023-02-01T03:44:40;2.83;;;2.63;;
17947;SDS011;9099;47.958;11.366;2023-02-01T03:47:13;3.13;;;2.72;;
17947;SDS011;9099;47.958;11.366;2023-02-01T03:49:45;3.28;;;2.55;;
17947;SDS011;9099;47.958;11.366;2023-02-01T03:52:17;2.63;;;2.43;;
17947;SDS011;9099;47.958;11.366;2023-02-01T03:54:48;2.92;;;2.60;;
17947;SDS011;9099;47.958;11.366;2023-02-01T03:57:17;3.40;;;2.80;;
17947;SDS011;9099;47.958;11.366;2023-02-01T03:59:49;2.75;;;2.55;;
17947;SDS011;9099;47.958;11.366;2023-02-01T04:02:16;2.40;;;2.20;;
17947;SDS011;9099;47.958;11.366;2023-02-01T04:04:43;3.77;;;2.90;;
17947;SDS011;9099;47.958;11.366;2023-02-01T04:07:10;3.97;;;3.00;;
17947;SDS011;9099;47.958;11.366;2023-02-01T04:09:38;3.28;;;2.97;;
17947;SDS011;9099;47.958;11.366;2023-02-01T04:12:05;2.80;;;2.60;;
17947;SDS011;9099;47.958;11.366;2023-02-01T04:14:32;3.20;;;2.85;;
17947;SDS011;9099;47.958;11.366;2023-02-01T04:16:59;3.33;;;3.08;;
17947;SDS011;9099;47.958;11.366;2023-02-01T04:19:26;3.10;;;2.90;;
17947;SDS011;9099;47.958;11.366;2023-02-01T04:21:53;3.00;;;2.70;;
17947;SDS011;9099;47.958;11.366;2023-02-01T04:24:20;2.83;;;2.63;;
17947;SDS011;9099;47.958;11.366;2023-02-01T04:26:48;2.88;;;2.60;;
17947;SDS011;9099;47.958;11.366;2023-02-01T04:29:15;3.60;;;2.90;;
17947;SDS011;9099;47.958;11.366;2023-02-01T04:31:41;3.47;;;3.17;;
17947;SDS011;9099;47.958;11.366;2023-02-01T04:34:08;3.27;;;2.63;;
17947;SDS011;9099;47.958;11.366;2023-02-01T04:36:35;3.50;;;2.70;;
17947;SDS011;9099;47.958;11.366;2023-02-01T04:39:02;2.90;;;2.70;;
17947;SDS011;9099;47.958;11.366;2023-02-01T04:41:29;3.70;;;3.10;;
17947;SDS011;9099;47.958;11.366;2023-02-01T04:43:57;3.20;;;3.00;;
17947;SDS011;9099;47.958;11.366;2023-02-01T04:46:24;2.70;;;2.50;;
17947;SDS011;9099;47.958;11.366;2023-02-01T04:48:51;3.20;;;2.75;;
17947;SDS011;9099;47.958;11.366;2023-02-01T04:51:17;4.17;;;2.57;;
17947;SDS011;9099;47.958;11.366;2023-02-01T04:53:44;2.97;;;2.77;;
17947;SDS011;9099;47.958;11.366;2023-02-01T04:56:11;3.37;;;3.07;;
17947;SDS011;9099;47.958;11.366;2023-02-01T04:58:38;3.70;;;3.00;;
17947;SDS011;9099;47.958;11.366;2023-02-01T05:01:06;3.42;;;3.13;;
17947;SDS011;9099;47.958;11.366;2023-02-01T05:03:33;3.60;;;3.30;;
17947;SDS011;9099;47.958;11.366;2023-02-01T05:06:00;4.40;;;3.53;;
17947;SDS011;9099;47.958;11.366;2023-02-01T05:08:29;3.30;;;3.00;;
17947;SDS011;9099;47.958;11.366;2023-02-01T05:10:55;3.42;;;3.13;;
17947;SDS011;9099;47.958;11.366;2023-02-01T05:13:23;3.72;;;3.42;;
17947;SDS011;9099;47.958;11.366;2023-02-01T05:16:09;3.50;;;3.20;;
17947;SDS011;9099;47.958;11.366;2023-02-01T05:18:36;3.57;;;3.20;;
17947;SDS011;9099;47.958;11.366;2023-02-01T05:21:03;3.70;;;3.40;;
17947;SDS011;9099;47.958;11.366;2023-02-01T05:23:30;3.73;;;3.43;;
17947;SDS011;9099;47.958;11.366;2023-02-01T05:26:00;4.20;;;3.30;;
17947;SDS011;9099;47.958;11.366;2023-02-01T05:28:27;3.77;;;3.47;;
17947;SDS011;9099;47.958;11.366;2023-02-01T05:30:54;3.72;;;3.38;;
17947;SDS011;9099;47.958;11.366;2023-02-01T05:33:22;5.13;;;3.67;;
17947;SDS011;9099;47.958;11.366;2023-02-01T05:35:49;3.53;;;3.22;;
17947;SDS011;9099;47.958;11.366;2023-02-01T05:38:16;3.90;;;3.30;;
17947;SDS011;9099;47.958;11.366;2023-02-01T05:40:43;4.00;;;3.60;;
17947;SDS011;9099;47.958;11.366;2023-02-01T05:43:14;3.70;;;3.40;;
17947;SDS011;9099;47.958;11.366;2023-02-01T05:45:41;3.40;;;3.10;;
17947;SDS011;9099;47.958;11.366;2023-02-01T05:48:08;3.80;;;3.40;;
17947;SDS011;9099;47.958;11.366;2023-02-01T05:50:37;3.38;;;3.08;;
17947;SDS011;9099;47.958;11.366;2023-02-01T05:53:03;3.53;;;3.08;;
17947;SDS011;9099;47.958;11.366;2023-02-01T05:55:30;3.40;;;3.10;;
17947;SDS011;9099;47.958;11.366;2023-02-01T05:57:57;3.45;;;3.15;;
17947;SDS011;9099;47.958;11.366;2023-02-01T06:00:24;3.23;;;2.97;;
17947;SDS011;9099;47.958;11.366;2023-02-01T06:02:51;4.40;;;3.30;;
17947;SDS011;9099;47.958;11.366;2023-02-01T06:05:18;3.65;;;3.35;;
17947;SDS011;9099;47.958;11.366;2023-02-01T06:07:46;3.42;;;3.00;;
17947;SDS011;9099;47.958;11.366;2023-02-01T06:10:14;3.75;;;3.45;;
17947;SDS011;9099;47.958;11.366;2023-02-01T06:12:42;3.43;;;3.00;;
17947;SDS011;9099;47.958;11.366;2023-02-01T06:15:09;3.87;;;3.57;;
17947;SDS011;9099;47.958;11.366;2023-02-01T06:17:36;3.30;;;3.10;;
17947;SDS011;9099;47.958;11.366;2023-02-01T06:20:05;3.57;;;3.27;;
17947;SDS011;9099;47.958;11.366;2023-02-01T06:22:32;3.50;;;3.20;;
17947;SDS011;9099;47.958;11.366;2023-02-01T06:25:02;3.83;;;3.40;;
17947;SDS011;9099;47.958;11.366;2023-02-01T06:27:29;3.50;;;3.20;;
17947;SDS011;9099;47.958;11.366;2023-02-01T06:29:56;3.95;;;3.45;;
17947;SDS011;9099;47.958;11.366;2023-02-01T06:32:22;3.37;;;3.07;;
17947;SDS011;9099;47.958;11.366;2023-02-01T06:34:49;3.42;;;3.13;;
17947;SDS011;9099;47.958;11.366;2023-02-01T06:37:17;3.25;;;2.95;;
17947;SDS011;9099;47.958;11.366;2023-02-01T06:39:44;3.63;;;3.03;;
17947;SDS011;9099;47.958;11.366;2023-02-01T06:42:13;3.30;;;3.00;;
17947;SDS011;9099;47.958;11.366;2023-02-01T06:44:40;4.82;;;3.28;;
17947;SDS011;9099;47.958;11.366;2023-02-01T06:47:07;3.30;;;2.83;;
17947;SDS011;9099;47.958;11.366;2023-02-01T06:49:34;3.10;;;2.80;;
17947;SDS011;9099;47.958;11.366;2023-02-01T06:52:01;3.30;;;3.00;;
17947;SDS011;9099;47.958;11.366;2023-02-01T06:54:27;3.10;;;2.80;;
17947;SDS011;9099;47.958;11.366;2023-02-01T06:56:57;3.20;;;2.90;;
17947;SDS011;9099;47.958;11.366;2023-02-01T06:59:25;4.00;;;2.97;;
17947;SDS011;9099;47.958;11.366;2023-02-01T07:01:52;3.30;;;2.95;;
17947;SDS011;9099;47.958;11.366;2023-02-01T07:04:18;3.67;;;2.63;;
17947;SDS011;9099;47.958;11.366;2023-02-01T07:06:45;3.97;;;3.13;;
17947;SDS011;9099;47.958;11.366;2023-02-01T07:09:12;3.03;;;2.72;;
17947;SDS011;9099;47.958;11.366;2023-02-01T07:11:39;3.53;;;2.95;;
17947;SDS011;9099;47.958;11.366;2023-02-01T07:14:08;2.93;;;2.60;;
17947;SDS011;9099;47.958;11.366;2023-02-01T07:16:36;3.35;;;2.85;;
17947;SDS011;9099;47.958;11.366;2023-02-01T07:19:03;3.00;;;2.53;;
17947;SDS011;9099;47.958;11.366;2023-02-01T07:21:30;3.05;;;2.67;;
17947;SDS011;9099;47.958;11.366;2023-02-01T07:23:57;2.77;;;2.57;;
17947;SDS011;9099;47.958;11.366;2023-02-01T07:26:24;2.87;;;2.67;;
17947;SDS011;9099;47.958;11.366;2023-02-01T07:28:51;2.63;;;2.43;;
17947;SDS011;9099;47.958;11.366;2023-02-01T07:31:18;3.40;;;2.57;;
17947;SDS011;9099;47.958;11.366;2023-02-01T07:33:48;2.60;;;2.40;;
17947;SDS011;9099;47.958;11.366;2023-02-01T07:36:17;2.70;;;2.50;;
17947;SDS011;9099;47.958;11.366;2023-02-01T07:38:44;2.85;;;2.55;;
17947;SDS011;9099;47.958;11.366;2023-02-01T07:41:14;2.53;;;2.33;;
17947;SDS011;9099;47.958;11.366;2023-02-01T07:43:41;2.60;;;2.40;;
17947;SDS011;9099;47.958;11.366;2023-02-01T07:46:09;2.57;;;2.37;;
17947;SDS011;9099;47.958;11.366;2023-02-01T07:48:36;2.40;;;2.20;;
17947;SDS011;9099;47.958;11.366;2023-02-01T07:51:06;2.30;;;2.10;;
17947;SDS011;9099;47.958;11.366;2023-02-01T07:53:35;2.50;;;2.30;;
17947;SDS011;9099;47.958;11.366;2023-02-01T07:56:03;2.50;;;2.30;;
17947;SDS011;9099;47.958;11.366;2023-02-01T07:58:30;2.65;;;2.45;;
17947;SDS011;9099;47.958;11.366;2023-02-01T08:01:02;2.72;;;2.53;;
17947;SDS011;9099;47.958;11.366;2023-02-01T08:03:50;2.70;;;2.50;;
17947;SDS011;9099;47.958;11.366;2023-02-01T08:06:24;2.70;;;2.40;;
17947;SDS011;9099;47.958;11.366;2023-02-01T08:08:54;3.13;;;2.80;;
17947;SDS011;9099;47.958;11.366;2023-02-01T08:11:24;2.60;;;2.40;;
17947;SDS011;9099;47.958;11.366;2023-02-01T08:13:53;3.13;;;2.83;;
17947;SDS011;9099;47.958;11.366;2023-02-01T08:16:21;3.08;;;2.72;;
17947;SDS011;9099;47.958;11.366;2023-02-01T08:18:48;2.63;;;2.40;;
17947;SDS011;9099;47.958;11.366;2023-02-01T08:21:16;2.70;;;2.50;;
17947;SDS011;9099;47.958;11.366;2023-02-01T08:23:48;2.80;;;2.60;;
17947;SDS011;9099;47.958;11.366;2023-02-01T08:26:16;3.10;;;2.80;;
17947;SDS011;9099;47.958;11.366;2023-02-01T08:28:46;2.83;;;2.63;;
17947;SDS011;9099;47.958;11.366;2023-02-01T08:31:17;2.65;;;2.45;;
17947;SDS011;9099;47.958;11.366;2023-02-01T08:33:48;2.88;;;2.67;;
17947;SDS011;9099;47.958;11.366;2023-02-01T08:36:15;3.60;;;3.00;;
17947;SDS011;9099;47.958;11.366;2023-02-01T08:38:45;4.10;;;2.47;;
17947;SDS011;9099;47.958;11.366;2023-02-01T08:41:15;3.25;;;2.78;;
17947;SDS011;9099;47.958;11.366;2023-02-01T08:43:44;2.65;;;2.45;;
17947;SDS011;9099;47.958;11.366;2023-02-01T08:46:12;2.53;;;2.33;;
17947;SDS011;9099;47.958;11.366;2023-02-01T08:48:40;2.63;;;2.42;;
17947;SDS011;9099;47.958;11.366;2023-02-01T08:51:08;2.53;;;2.20;;
17947;SDS011;9099;47.958;11.366;2023-02-01T08:53:38;2.50;;;2.30;;
17947;SDS011;9099;47.958;11.366;2023-02-01T08:56:07;2.80;;;2.60;;
17947;SDS011;9099;47.958;11.366;2023-02-01T08:58:35;3.30;;;2.45;;
17947;SDS011;9099;47.958;11.366;2023-02-01T09:01:03;2.42;;;2.22;;
17947;SDS011;9099;47.958;11.366;2023-02-01T09:03:30;2.72;;;2.53;;
17947;SDS011;9099;47.958;11.366;2023-02-01T09:06:00;2.10;;;2.00;;
17947;SDS011;9099;47.958;11.366;2023-02-01T09:08:27;2.65;;;2.45;;
17947;SDS011;9099;47.958;11.366;2023-02-01T09:10:58;2.58;;;2.33;;
17947;SDS011;9099;47.958;11.366;2023-02-01T09:13:27;2.30;;;2.10;;
17947;SDS011;9099;47.958;11.366;2023-02-01T09:15:54;2.80;;;2.60;;
17947;SDS011;9099;47.958;11.366;2023-02-01T09:18:21;2.80;;;2.60;;
17947;SDS011;9099;47.958;11.366;2023-02-01T09:20:49;2.63;;;2.35;;
17947;SDS011;9099;47.958;11.366;2023-02-01T09:23:16;2.17;;;2.08;;
17947;SDS011;9099;47.958;11.366;2023-02-01T09:25:45;2.47;;;2.28;;
17947;SDS011;9099;47.958;11.366;2023-02-01T09:28:13;2.45;;;2.25;;
17947;SDS011;9099;47.958;11.366;2023-02-01T09:30:42;3.35;;;2.20;;
17947;SDS011;9099;47.958;11.366;2023-02-01T09:33:09;2.35;;;2.20;;
17947;SDS011;9099;47.958;11.366;2023-02-01T09:35:37;1.92;;;1.83;;
17947;SDS011;9099;47.958;11.366;2023-02-01T09:38:04;2.63;;;2.30;;
17947;SDS011;9099;47.958;11.366;2023-02-01T09:40:32;2.70;;;2.00;;
17947;SDS011;9099;47.958;11.366;2023-02-01T09:43:06;2.40;;;2.05;;
17947;SDS011;9099;47.958;11.366;2023-02-01T09:45:47;2.47;;;2.00;;
17947;SDS011;9099;47.958;11.366;2023-02-01T09:48:23;2.38;;;2.13;;
17947;SDS011;9099;47.958;11.366;2023-02-01T09:50:56;2.65;;;2.38;;
17947;SDS011;9099;47.958;11.366;2023-02-01T09:53:24;2.70;;;2.50;;
17947;SDS011;9099;47.958;11.366;2023-02-01T09:55:58;4.45;;;2.20;;
17947;SDS011;9099;47.958;11.366;2023-02-01T09:58:30;2.30;;;2.10;;
17947;SDS011;9099;47.958;11.366;2023-02-01T10:01:03;2.42;;;2.22;;
17947;SDS011;9099;47.958;11.366;2023-02-01T10:03:37;2.40;;;2.20;;
17947;SDS011;9099;47.958;11.366;2023-02-01T10:06:09;2.42;;;2.13;;
17947;SDS011;9099;47.958;11.366;2023-02-01T10:09:02;2.67;;;2.05;;
17947;SDS011;9099;47.958;11.366;2023-02-01T10:12:00;2.15;;;1.92;;
17947;SDS011;9099;47.958;11.366;2023-02-01T10:14:51;2.08;;;1.90;;
17947;SDS011;9099;47.958;11.366;2023-02-01T10:17:33;1.83;;;1.73;;
17947;SDS011;9099;47.958;11.366;2023-02-01T10:20:15;2.50;;;2.30;;
17947;SDS011;9099;47.958;11.366;2023-02-01T10:22:51;2.20;;;2.00;;
17947;SDS011;9099;47.958;11.366;2023-02-01T10:25:26;2.10;;;2.00;;
17947;SDS011;9099;47.958;11.366;2023-02-01T10:27:59;2.20;;;2.00;;
17947;SDS011;9099;47.958;11.366;2023-02-01T10:30:29;2.22;;;1.90;;
17947;SDS011;9099;47.958;11.366;2023-02-01T10:33:07;1.98;;;1.65;;
17947;SDS011;9099;47.958;11.366;2023-02-01T10:35:41;2.00;;;1.77;;
17947;SDS011;9099;47.958;11.366;2023-02-01T10:38:12;1.73;;;1.63;;
17947;SDS011;9099;47.958;11.366;2023-02-01T10:40:44;1.90;;;1.80;;
17947;SDS011;9099;47.958;11.366;2023-02-01T10:43:11;2.30;;;2.10;;
17947;SDS011;9099;47.958;11.366;2023-02-01T10:45:38;2.80;;;1.80;;
17947;SDS011;9099;47.958;11.366;2023-02-01T10:48:09;1.95;;;1.85;;
17947;SDS011;9099;47.958;11.366;2023-02-01T10:50:37;1.85;;;1.73;;
17947;SDS011;9099;47.958;11.366;2023-02-01T10:53:11;2.55;;;1.58;;
17947;SDS011;9099;47.958;11.366;2023-02-01T10:55:46;2.10;;;1.80;;
17947;SDS011;9099;47.958;11.366;2023-02-01T10:58:16;1.98;;;1.88;;
17947;SDS011;9099;47.958;11.366;2023-02-01T11:00:45;1.77;;;1.67;;
17947;SDS011;9099;47.958;11.366;2023-02-01T11:06:11;2.88;;;1.90;;
17947;SDS011;9099;47.958;11.366;2023-02-01T11:08:47;2.22;;;1.90;;
17947;SDS011;9099;47.958;11.366;2023-02-01T11:11:16;2.20;;;1.88;;
17947;SDS011;9099;47.958;11.366;2023-02-01T11:13:44;2.00;;;1.90;;
17947;SDS011;9099;47.958;11.366;2023-02-01T11:16:19;2.10;;;1.80;;
17947;SDS011;9099;47.958;11.366;2023-02-01T11:18:47;1.70;;;1.60;;
17947;SDS011;9099;47.958;11.366;2023-02-01T11:21:20;1.70;;;1.60;;
17947;SDS011;9099;47.958;11.366;2023-02-01T11:23:47;2.15;;;1.95;;
17947;SDS011;9099;47.958;11.366;2023-02-01T11:26:19;1.85;;;1.70;;
17947;SDS011;9099;47.958;11.366;2023-02-01T11:28:50;2.95;;;2.10;;
17947;SDS011;9099;47.958;11.366;2023-02-01T11:31:23;2.63;;;1.92;;
17947;SDS011;9099;47.958;11.366;2023-02-01T11:33:54;2.47;;;1.75;;
17947;SDS011;9099;47.958;11.366;2023-02-01T11:36:25;1.80;;;1.67;;
17947;SDS011;9099;47.958;11.366;2023-02-01T11:39:07;1.75;;;1.50;;
17947;SDS011;9099;47.958;11.366;2023-02-01T11:41:40;1.98;;;1.80;;
17947;SDS011;9099;47.958;11.366;2023-02-01T11:44:19;2.20;;;2.00;;
17947;SDS011;9099;47.958;11.366;2023-02-01T11:46:48;4.30;;;1.73;;
17947;SDS011;9099;47.958;11.366;2023-02-01T11:49:20;2.15;;;1.80;;
17947;SDS011;9099;47.958;11.366;2023-02-01T11:52:03;2.67;;;2.00;;
17947;SDS011;9099;47.958;11.366;2023-02-01T11:54:40;3.83;;;2.17;;
17947;SDS011;9099;47.958;11.366;2023-02-01T11:57:27;2.15;;;1.90;;
17947;SDS011;9099;47.958;11.366;2023-02-01T12:00:23;3.13;;;1.77;;
17947;SDS011;9099;47.958;11.366;2023-02-01T12:03:14;3.95;;;2.10;;
17947;SDS011;9099;47.958;11.366;2023-02-01T12:06:07;1.98;;;1.77;;
17947;SDS011;9099;47.958;11.366;2023-02-01T12:11:36;2.92;;;2.00;;
17947;SDS011;9099;47.958;11.366;2023-02-01T12:14:21;4.72;;;1.90;;
17947;SDS011;9099;47.958;11.366;2023-02-01T12:16:57;2.83;;;2.10;;
17947;SDS011;9099;47.958;11.366;2023-02-01T12:19:55;5.07;;;2.20;;
17947;SDS011;9099;47.958;11.366;2023-02-01T12:22:36;3.25;;;2.13;;
17947;SDS011;9099;47.958;11.366;2023-02-01T12:28:12;2.97;;;1.80;;
17947;SDS011;9099;47.958;11.366;2023-02-01T12:31:11;3.22;;;1.75;;
17947;SDS011;9099;47.958;11.366;2023-02-01T12:33:52;5.53;;;1.90;;
17947;SDS011;9099;47.958;11.366;2023-02-01T12:36:35;4.55;;;2.72;;
17947;SDS011;9099;47.958;11.366;2023-02-01T12:39:15;5.05;;;3.25;;
17947;SDS011;9099;47.958;11.366;2023-02-01T12:41:58;5.70;;;2.28;;
17947;SDS011;9099;47.958;11.366;2023-02-01T12:44:35;4.00;;;2.33;;
17947;SDS011;9099;47.958;11.366;2023-02-01T12:47:09;3.33;;;2.10;;
17947;SDS011;9099;47.958;11.366;2023-02-01T12:49:48;2.75;;;1.80;;
17947;SDS011;9099;47.958;11.366;2023-02-01T12:52:23;3.00;;;2.00;;
17947;SDS011;9099;47.958;11.366;2023-02-01T12:55:02;2.58;;;1.98;;
17947;SDS011;9099;47.958;11.366;2023-02-01T12:57:35;3.70;;;2.38;;
17947;SDS011;9099;47.958;11.366;2023-02-01T13:00:07;2.30;;;1.92;;
17947;SDS011;9099;47.958;11.366;2023-02-01T13:02:49;3.75;;;2.00;;
17947;SDS011;9099;47.958;11.366;2023-02-01T13:05:21;2.00;;;1.80;;
17947;SDS011;9099;47.958;11.366;2023-02-01T13:07:51;2.40;;;1.52;;
17947;SDS011;9099;47.958;11.366;2023-02-01T13:10:26;2.03;;;1.55;;
17947;SDS011;9099;47.958;11.366;2023-02-01T13:13:01;3.15;;;1.80;;
17947;SDS011;9099;47.958;11.366;2023-02-01T13:15:39;1.40;;;1.30;;
17947;SDS011;9099;47.958;11.366;2023-02-01T13:18:09;2.15;;;1.50;;
17947;SDS011;9099;47.958;11.366;2023-02-01T13:20:42;1.83;;;1.60;;
17947;SDS011;9099;47.958;11.366;2023-02-01T13:23:17;4.40;;;1.48;;
17947;SDS011;9099;47.958;11.366;2023-02-01T13:25:51;1.85;;;1.38;;
17947;SDS011;9099;47.958;11.366;2023-02-01T13:28:24;1.25;;;1.15;;
17947;SDS011;9099;47.958;11.366;2023-02-01T13:30:59;2.00;;;1.42;;
17947;SDS011;9099;47.958;11.366;2023-02-01T13:33:42;1.48;;;1.30;;
17947;SDS011;9099;47.958;11.366;2023-02-01T13:36:41;3.08;;;1.30;;
17947;SDS011;9099;47.958;11.366;2023-02-01T13:39:22;2.25;;;1.48;;
17947;SDS011;9099;47.958;11.366;2023-02-01T13:42:15;2.65;;;1.77;;
17947;SDS011;9099;47.958;11.366;2023-02-01T13:44:49;1.40;;;1.30;;
17947;SDS011;9099;47.958;11.366;2023-02-01T13:47:22;1.98;;;1.50;;
17947;SDS011;9099;47.958;11.366;2023-02-01T13:49:52;1.88;;;1.50;;
17947;SDS011;9099;47.958;11.366;2023-02-01T13:52:26;1.70;;;1.50;;
17947;SDS011;9099;47.958;11.366;2023-02-01T13:58:02;2.10;;;1.70;;
17947;SDS011;9099;47.958;11.366;2023-02-01T14:00:40;2.70;;;1.80;;
17947;SDS011;9099;47.958;11.366;2023-02-01T14:03:10;2.95;;;1.63;;
17947;SDS011;9099;47.958;11.366;2023-02-01T14:23:18;1.60;;;1.48;;
17947;SDS011;9099;47.958;11.366;2023-02-01T14:25:47;2.03;;;1.50;;
17947;SDS011;9099;47.958;11.366;2023-02-01T14:28:33;2.22;;;1.70;;
17947;SDS011;9099;47.958;11.366;2023-02-01T14:31:15;2.20;;;1.60;;
17947;SDS011;9099;47.958;11.366;2023-02-01T14:33:58;2.00;;;1.50;;
17947;SDS011;9099;47.958;11.366;2023-02-01T14:36:31;4.32;;;1.63;;
17947;SDS011;9099;47.958;11.366;2023-02-01T14:39:17;2.13;;;1.45;;
17947;SDS011;9099;47.958;11.366;2023-02-01T14:41:46;1.83;;;1.60;;
17947;SDS011;9099;47.958;11.366;2023-02-01T14:44:26;2.40;;;1.40;;
17947;SDS011;9099;47.958;11.366;2023-02-01T14:47:06;4.10;;;1.92;;
17947;SDS011;9099;47.958;11.366;2023-02-01T14:49:54;2.30;;;1.77;;
17947;SDS011;9099;47.958;11.366;2023-02-01T14:52:28;2.38;;;1.70;;
17947;SDS011;9099;47.958;11.366;2023-02-01T14:55:00;2.50;;;1.60;;
17947;SDS011;9099;47.958;11.366;2023-02-01T14:57:32;1.70;;;1.60;;
17947;SDS011;9099;47.958;11.366;2023-02-01T15:00:07;2.22;;;1.70;;
17947;SDS011;9099;47.958;11.366;2023-02-01T15:02:46;1.65;;;1.40;;
17947;SDS011;9099;47.958;11.366;2023-02-01T15:08:04;2.30;;;1.77;;
17947;SDS011;9099;47.958;11.366;2023-02-01T15:10:40;1.98;;;1.65;;
17947;SDS011;9099;47.958;11.366;2023-02-01T15:13:21;3.30;;;1.50;;
17947;SDS011;9099;47.958;11.366;2023-02-01T15:16:03;2.35;;;1.75;;
17947;SDS011;9099;47.958;11.366;2023-02-01T15:18:33;3.10;;;1.90;;
17947;SDS011;9099;47.958;11.366;2023-02-01T15:21:01;2.53;;;2.03;;
17947;SDS011;9099;47.958;11.366;2023-02-01T15:23:29;2.53;;;1.92;;
17947;SDS011;9099;47.958;11.366;2023-02-01T15:25:56;3.40;;;1.77;;
17947;SDS011;9099;47.958;11.366;2023-02-01T15:28:24;2.20;;;1.77;;
17947;SDS011;9099;47.958;11.366;2023-02-01T15:30:53;2.28;;;1.70;;
17947;SDS011;9099;47.958;11.366;2023-02-01T15:33:21;2.70;;;1.80;;
17947;SDS011;9099;47.958;11.366;2023-02-01T15:35:50;3.00;;;1.63;;
17947;SDS011;9099;47.958;11.366;2023-02-01T15:38:30;2.33;;;1.90;;
17947;SDS011;9099;47.958;11.366;2023-02-01T15:41:02;2.90;;;1.98;;
17947;SDS011;9099;47.958;11.366;2023-02-01T15:43:34;4.63;;;1.90;;
17947;SDS011;9099;47.958;11.366;2023-02-01T15:46:06;2.42;;;1.80;;
17947;SDS011;9099;47.958;11.366;2023-02-01T15:48:38;3.00;;;1.85;;
17947;SDS011;9099;47.958;11.366;2023-02-01T15:51:13;3.10;;;1.80;;